sensor_id;sensor_type;location;lat;lon;timestamp;temperature;humidity
15203;DHT22;7702;51.046;5.184;2023-10-13T00:01:01;17.90;99.90
15203;DHT22;7702;51.046;5.184;2023-10-13T00:03:30;17.90;99.90
15203;DHT22;7702;51.046;5.184;2023-10-13T00:06:00;17.90;99.90
15203;DHT22;7702;51.046;5.184;2023-10-13T00:08:29;17.80;99.90
15203;DHT22;7702;51.046;5.184;2023-10-13T00:10:56;17.80;99.90
15203;DHT22;7702;51.046;5.184;2023-10-13T00:13:28;17.80;99.90
15203;DHT22;7702;51.046;5.184;2023-10-13T00:15:57;17.90;99.90
15203;DHT22;7702;51.046;5.184;2023-10-13T00:18:28;17.90;99.90
15203;DHT22;7702;51.046;5.184;2023-10-13T00:20:59;17.90;99.90
15203;DHT22;7702;51.046;5.184;2023-10-13T00:23:25;17.90;99.90
15203;DHT22;7702;51.046;5.184;2023-10-13T00:25:54;17.80;99.90
15203;DHT22;7702;51.046;5.184;2023-10-13T00:28:24;17.80;99.90
15203;DHT22;7702;51.046;5.184;2023-10-13T00:30:51;17.80;99.90
15203;DHT22;7702;51.046;5.184;2023-10-13T00:33:25;17.80;99.90
15203;DHT22;7702;51.046;5.184;2023-10-13T00:35:52;17.80;99.90
15203;DHT22;7702;51.046;5.184;2023-10-13T00:38:18;17.80;99.90
15203;DHT22;7702;51.046;5.184;2023-10-13T00:40:46;17.80;99.90
15203;DHT22;7702;51.046;5.184;2023-10-13T00:43:21;17.80;99.90
15203;DHT22;7702;51.046;5.184;2023-10-13T00:45:54;17.70;99.90
15203;DHT22;7702;51.046;5.184;2023-10-13T00:48:32;17.70;99.90
15203;DHT22;7702;51.046;5.184;2023-10-13T00:51:03;17.70;99.90
15203;DHT22;7702;51.046;5.184;2023-10-13T00:53:32;17.70;99.90
15203;DHT22;7702;51.046;5.184;2023-10-13T00:56:13;17.70;99.90
15203;DHT22;7702;51.046;5.184;2023-10-13T00:58:48;17.70;99.90
15203;DHT22;7702;51.046;5.184;2023-10-13T01:01:18;17.80;99.90
15203;DHT22;7702;51.046;5.184;2023-10-13T01:03:53;17.70;99.90
15203;DHT22;7702;51.046;5.184;2023-10-13T01:06:25;17.70;99.90
15203;DHT22;7702;51.046;5.184;2023-10-13T01:09:06;17.80;99.90
15203;DHT22;7702;51.046;5.184;2023-10-13T01:11:45;17.80;99.90
15203;DHT22;7702;51.046;5.184;2023-10-13T01:14:18;17.80;99.90
15203;DHT22;7702;51.046;5.184;2023-10-13T01:16:46;17.80;99.90
15203;DHT22;7702;51.046;5.184;2023-10-13T01:19:13;17.70;99.90
15203;DHT22;7702;51.046;5.184;2023-10-13T01:21:40;17.80;99.90
15203;DHT22;7702;51.046;5.184;2023-10-13T01:24:13;17.70;99.90
15203;DHT22;7702;51.046;5.184;2023-10-13T01:26:43;17.70;99.90
15203;DHT22;7702;51.046;5.184;2023-10-13T01:29:10;17.80;99.90
15203;DHT22;7702;51.046;5.184;2023-10-13T01:31:43;17.80;99.90
15203;DHT22;7702;51.046;5.184;2023-10-13T01:34:17;17.70;99.90
15203;DHT22;7702;51.046;5.184;2023-10-13T01:36:55;17.70;99.90
15203;DHT22;7702;51.046;5.184;2023-10-13T01:39:23;17.70;99.90
15203;DHT22;7702;51.046;5.184;2023-10-13T01:41:53;17.70;99.90
15203;DHT22;7702;51.046;5.184;2023-10-13T01:44:22;17.80;99.90
15203;DHT22;7702;51.046;5.184;2023-10-13T01:46:48;17.90;99.90
15203;DHT22;7702;51.046;5.184;2023-10-13T01:49:14;17.80;99.90
15203;DHT22;7702;51.046;5.184;2023-10-13T01:51:43;17.80;99.90
15203;DHT22;7702;51.046;5.184;2023-10-13T01:54:13;17.80;99.90
15203;DHT22;7702;51.046;5.184;2023-10-13T01:56:39;17.80;99.90
15203;DHT22;7702;51.046;5.184;2023-10-13T01:59:14;17.90;99.90
15203;DHT22;7702;51.046;5.184;2023-10-13T02:01:41;17.80;99.90
15203;DHT22;7702;51.046;5.184;2023-10-13T02:04:08;17.90;99.90
15203;DHT22;7702;51.046;5.184;2023-10-13T02:06:36;17.90;99.90
15203;DHT22;7702;51.046;5.184;2023-10-13T02:09:07;17.90;99.90
15203;DHT22;7702;51.046;5.184;2023-10-13T02:11:39;17.80;99.90
15203;DHT22;7702;51.046;5.184;2023-10-13T02:14:05;17.80;99.90
15203;DHT22;7702;51.046;5.184;2023-10-13T02:16:31;17.90;99.90
15203;DHT22;7702;51.046;5.184;2023-10-13T02:18:58;17.90;99.90
15203;DHT22;7702;51.046;5.184;2023-10-13T02:21:30;17.80;99.90
15203;DHT22;7702;51.046;5.184;2023-10-13T02:23:59;17.80;99.90
15203;DHT22;7702;51.046;5.184;2023-10-13T02:26:26;17.90;99.90
15203;DHT22;7702;51.046;5.184;2023-10-13T02:29:00;17.90;99.90
15203;DHT22;7702;51.046;5.184;2023-10-13T02:31:35;17.90;99.90
15203;DHT22;7702;51.046;5.184;2023-10-13T02:34:01;17.90;99.90
15203;DHT22;7702;51.046;5.184;2023-10-13T02:36:32;17.80;99.90
15203;DHT22;7702;51.046;5.184;2023-10-13T02:39:09;17.90;99.90
15203;DHT22;7702;51.046;5.184;2023-10-13T02:41:35;17.90;99.90
15203;DHT22;7702;51.046;5.184;2023-10-13T02:44:05;17.90;99.90
15203;DHT22;7702;51.046;5.184;2023-10-13T02:46:32;17.90;99.90
15203;DHT22;7702;51.046;5.184;2023-10-13T02:49:01;18.00;99.90
15203;DHT22;7702;51.046;5.184;2023-10-13T02:51:36;18.00;99.90
15203;DHT22;7702;51.046;5.184;2023-10-13T02:54:03;17.90;99.90
15203;DHT22;7702;51.046;5.184;2023-10-13T02:56:34;17.90;99.90
15203;DHT22;7702;51.046;5.184;2023-10-13T02:59:00;17.90;99.90
15203;DHT22;7702;51.046;5.184;2023-10-13T03:01:32;17.90;99.90
15203;DHT22;7702;51.046;5.184;2023-10-13T03:04:03;17.90;99.90
15203;DHT22;7702;51.046;5.184;2023-10-13T03:06:29;17.90;99.90
15203;DHT22;7702;51.046;5.184;2023-10-13T03:09:10;18.00;99.90
15203;DHT22;7702;51.046;5.184;2023-10-13T03:11:54;18.00;99.90
15203;DHT22;7702;51.046;5.184;2023-10-13T03:14:23;18.00;99.90
15203;DHT22;7702;51.046;5.184;2023-10-13T03:16:57;18.00;99.90
15203;DHT22;7702;51.046;5.184;2023-10-13T03:19:34;18.00;99.90
15203;DHT22;7702;51.046;5.184;2023-10-13T03:22:03;18.00;99.90
15203;DHT22;7702;51.046;5.184;2023-10-13T03:24:38;17.90;99.90
15203;DHT22;7702;51.046;5.184;2023-10-13T03:27:10;18.00;99.90
15203;DHT22;7702;51.046;5.184;2023-10-13T03:29:38;18.00;99.90
15203;DHT22;7702;51.046;5.184;2023-10-13T03:32:13;18.00;99.90
15203;DHT22;7702;51.046;5.184;2023-10-13T03:34:46;18.00;99.90
15203;DHT22;7702;51.046;5.184;2023-10-13T03:37:24;18.00;99.90
15203;DHT22;7702;51.046;5.184;2023-10-13T03:40:07;18.00;99.90
15203;DHT22;7702;51.046;5.184;2023-10-13T03:42:46;18.00;99.90
15203;DHT22;7702;51.046;5.184;2023-10-13T03:45:24;18.00;99.90
15203;DHT22;7702;51.046;5.184;2023-10-13T03:47:51;18.00;99.90
15203;DHT22;7702;51.046;5.184;2023-10-13T03:50:20;18.00;99.90
15203;DHT22;7702;51.046;5.184;2023-10-13T03:52:56;18.00;99.90
15203;DHT22;7702;51.046;5.184;2023-10-13T03:55:25;18.00;99.90
15203;DHT22;7702;51.046;5.184;2023-10-13T03:57:53;18.00;99.90
15203;DHT22;7702;51.046;5.184;2023-10-13T04:00:20;18.10;99.90
15203;DHT22;7702;51.046;5.184;2023-10-13T04:02:55;18.00;99.90
15203;DHT22;7702;51.046;5.184;2023-10-13T04:05:41;18.00;99.90
15203;DHT22;7702;51.046;5.184;2023-10-13T04:08:12;18.00;99.90
15203;DHT22;7702;51.046;5.184;2023-10-13T04:10:54;18.00;99.90
15203;DHT22;7702;51.046;5.184;2023-10-13T04:13:20;18.00;99.90
15203;DHT22;7702;51.046;5.184;2023-10-13T04:16:07;18.00;99.90
15203;DHT22;7702;51.046;5.184;2023-10-13T04:18:49;18.00;99.90
15203;DHT22;7702;51.046;5.184;2023-10-13T04:21:21;18.00;99.90
15203;DHT22;7702;51.046;5.184;2023-10-13T04:24:10;18.00;99.90
15203;DHT22;7702;51.046;5.184;2023-10-13T04:26:54;18.10;99.90
15203;DHT22;7702;51.046;5.184;2023-10-13T04:29:52;18.10;99.90
15203;DHT22;7702;51.046;5.184;2023-10-13T04:32:21;18.00;99.90
15203;DHT22;7702;51.046;5.184;2023-10-13T04:34:59;18.10;99.90
15203;DHT22;7702;51.046;5.184;2023-10-13T04:37:42;18.00;99.90
15203;DHT22;7702;51.046;5.184;2023-10-13T04:40:27;18.10;99.90
15203;DHT22;7702;51.046;5.184;2023-10-13T04:43:01;18.10;99.90
15203;DHT22;7702;51.046;5.184;2023-10-13T04:45:52;18.10;99.90
15203;DHT22;7702;51.046;5.184;2023-10-13T04:48:20;18.10;99.90
15203;DHT22;7702;51.046;5.184;2023-10-13T04:50:49;18.10;99.90
15203;DHT22;7702;51.046;5.184;2023-10-13T04:53:38;18.10;99.90
15203;DHT22;7702;51.046;5.184;2023-10-13T04:56:22;18.10;99.90
15203;DHT22;7702;51.046;5.184;2023-10-13T04:59:06;18.20;99.90
15203;DHT22;7702;51.046;5.184;2023-10-13T05:01:44;18.10;99.90
15203;DHT22;7702;51.046;5.184;2023-10-13T05:04:28;18.20;99.90
15203;DHT22;7702;51.046;5.184;2023-10-13T05:07:05;18.20;99.90
15203;DHT22;7702;51.046;5.184;2023-10-13T05:09:49;18.20;99.90
15203;DHT22;7702;51.046;5.184;2023-10-13T05:12:34;18.20;99.90
15203;DHT22;7702;51.046;5.184;2023-10-13T05:15:19;18.20;99.90
15203;DHT22;7702;51.046;5.184;2023-10-13T05:18:03;18.20;99.90
15203;DHT22;7702;51.046;5.184;2023-10-13T05:20:48;18.20;99.90
15203;DHT22;7702;51.046;5.184;2023-10-13T05:23:32;18.20;99.90
15203;DHT22;7702;51.046;5.184;2023-10-13T05:26:17;18.20;99.90
15203;DHT22;7702;51.046;5.184;2023-10-13T05:29:01;18.20;99.90
15203;DHT22;7702;51.046;5.184;2023-10-13T05:31:50;18.20;99.90
15203;DHT22;7702;51.046;5.184;2023-10-13T05:34:34;18.20;99.90
15203;DHT22;7702;51.046;5.184;2023-10-13T05:37:18;18.20;99.90
15203;DHT22;7702;51.046;5.184;2023-10-13T05:40:03;18.20;99.90
15203;DHT22;7702;51.046;5.184;2023-10-13T05:42:48;18.20;99.90
15203;DHT22;7702;51.046;5.184;2023-10-13T05:45:35;18.20;99.90
15203;DHT22;7702;51.046;5.184;2023-10-13T05:48:23;18.20;99.90
15203;DHT22;7702;51.046;5.184;2023-10-13T05:51:06;18.20;99.90
15203;DHT22;7702;51.046;5.184;2023-10-13T05:53:50;18.30;99.90
15203;DHT22;7702;51.046;5.184;2023-10-13T05:56:34;18.30;99.90
15203;DHT22;7702;51.046;5.184;2023-10-13T05:59:19;18.30;99.90
15203;DHT22;7702;51.046;5.184;2023-10-13T06:02:03;18.20;99.90
15203;DHT22;7702;51.046;5.184;2023-10-13T06:04:47;18.30;99.90
15203;DHT22;7702;51.046;5.184;2023-10-13T06:07:31;18.30;99.90
15203;DHT22;7702;51.046;5.184;2023-10-13T06:10:15;18.30;99.90
15203;DHT22;7702;51.046;5.184;2023-10-13T06:12:59;18.30;99.90
15203;DHT22;7702;51.046;5.184;2023-10-13T06:15:43;18.30;99.90
15203;DHT22;7702;51.046;5.184;2023-10-13T06:18:27;18.20;99.90
15203;DHT22;7702;51.046;5.184;2023-10-13T06:21:11;18.20;99.90
15203;DHT22;7702;51.046;5.184;2023-10-13T06:23:56;18.20;99.90
15203;DHT22;7702;51.046;5.184;2023-10-13T06:26:40;18.20;99.90
15203;DHT22;7702;51.046;5.184;2023-10-13T06:29:34;18.20;99.90
15203;DHT22;7702;51.046;5.184;2023-10-13T06:32:00;18.20;99.90
15203;DHT22;7702;51.046;5.184;2023-10-13T06:34:30;18.20;99.90
15203;DHT22;7702;51.046;5.184;2023-10-13T06:37:14;18.20;99.90
15203;DHT22;7702;51.046;5.184;2023-10-13T06:39:51;18.30;99.90
15203;DHT22;7702;51.046;5.184;2023-10-13T06:42:17;18.30;99.90
15203;DHT22;7702;51.046;5.184;2023-10-13T06:44:45;18.30;99.90
15203;DHT22;7702;51.046;5.184;2023-10-13T06:47:12;18.30;99.90
15203;DHT22;7702;51.046;5.184;2023-10-13T06:49:39;18.30;99.90
15203;DHT22;7702;51.046;5.184;2023-10-13T06:52:05;18.30;99.90
15203;DHT22;7702;51.046;5.184;2023-10-13T06:54:38;18.40;99.90
15203;DHT22;7702;51.046;5.184;2023-10-13T06:57:05;18.40;99.90
15203;DHT22;7702;51.046;5.184;2023-10-13T06:59:36;18.50;99.90
15203;DHT22;7702;51.046;5.184;2023-10-13T07:02:05;18.50;99.90
15203;DHT22;7702;51.046;5.184;2023-10-13T07:04:32;18.50;99.90
15203;DHT22;7702;51.046;5.184;2023-10-13T07:06:58;18.50;99.90
15203;DHT22;7702;51.046;5.184;2023-10-13T07:09:26;18.50;99.90
15203;DHT22;7702;51.046;5.184;2023-10-13T07:12:05;18.60;99.90
15203;DHT22;7702;51.046;5.184;2023-10-13T07:14:52;18.60;99.90
15203;DHT22;7702;51.046;5.184;2023-10-13T07:17:19;18.60;99.90
15203;DHT22;7702;51.046;5.184;2023-10-13T07:19:52;18.60;99.90
15203;DHT22;7702;51.046;5.184;2023-10-13T07:22:36;18.70;99.90
15203;DHT22;7702;51.046;5.184;2023-10-13T07:25:05;18.70;99.90
15203;DHT22;7702;51.046;5.184;2023-10-13T07:27:34;18.70;99.90
15203;DHT22;7702;51.046;5.184;2023-10-13T07:30:01;18.80;99.90
15203;DHT22;7702;51.046;5.184;2023-10-13T07:32:43;18.90;99.90
15203;DHT22;7702;51.046;5.184;2023-10-13T07:35:16;18.90;99.90
15203;DHT22;7702;51.046;5.184;2023-10-13T07:37:45;19.00;99.90
15203;DHT22;7702;51.046;5.184;2023-10-13T07:40:14;19.00;99.90
15203;DHT22;7702;51.046;5.184;2023-10-13T07:42:56;19.10;99.90
15203;DHT22;7702;51.046;5.184;2023-10-13T07:45:38;19.20;99.90
15203;DHT22;7702;51.046;5.184;2023-10-13T07:48:07;19.30;99.90
15203;DHT22;7702;51.046;5.184;2023-10-13T07:50:59;19.50;99.90
15203;DHT22;7702;51.046;5.184;2023-10-13T07:53:32;19.70;99.90
15203;DHT22;7702;51.046;5.184;2023-10-13T07:56:03;19.80;99.90
15203;DHT22;7702;51.046;5.184;2023-10-13T07:58:31;19.80;99.90
15203;DHT22;7702;51.046;5.184;2023-10-13T08:00:57;19.80;99.90
15203;DHT22;7702;51.046;5.184;2023-10-13T08:03:35;19.80;99.90
15203;DHT22;7702;51.046;5.184;2023-10-13T08:06:15;19.70;99.90
15203;DHT22;7702;51.046;5.184;2023-10-13T08:08:41;19.70;99.90
15203;DHT22;7702;51.046;5.184;2023-10-13T08:11:12;19.70;99.90
15203;DHT22;7702;51.046;5.184;2023-10-13T08:13:58;19.70;99.90
15203;DHT22;7702;51.046;5.184;2023-10-13T08:16:42;19.70;99.90
15203;DHT22;7702;51.046;5.184;2023-10-13T08:19:25;19.80;99.90
15203;DHT22;7702;51.046;5.184;2023-10-13T08:21:57;19.80;99.90
15203;DHT22;7702;51.046;5.184;2023-10-13T08:24:44;19.90;99.90
15203;DHT22;7702;51.046;5.184;2023-10-13T08:27:10;20.00;99.90
15203;DHT22;7702;51.046;5.184;2023-10-13T08:29:46;20.10;99.90
15203;DHT22;7702;51.046;5.184;2023-10-13T08:34:53;20.20;99.90
15203;DHT22;7702;51.046;5.184;2023-10-13T08:37:20;20.30;99.90
15203;DHT22;7702;51.046;5.184;2023-10-13T08:39:50;20.40;99.90
15203;DHT22;7702;51.046;5.184;2023-10-13T08:42:29;20.50;99.90
15203;DHT22;7702;51.046;5.184;2023-10-13T08:45:12;20.60;99.90
15203;DHT22;7702;51.046;5.184;2023-10-13T08:48:07;20.80;99.90
15203;DHT22;7702;51.046;5.184;2023-10-13T08:50:46;20.80;99.90
15203;DHT22;7702;51.046;5.184;2023-10-13T08:55:59;20.70;99.90
15203;DHT22;7702;51.046;5.184;2023-10-13T08:58:47;20.70;99.90
15203;DHT22;7702;51.046;5.184;2023-10-13T09:01:23;20.80;99.90
15203;DHT22;7702;51.046;5.184;2023-10-13T09:04:08;20.80;99.90
15203;DHT22;7702;51.046;5.184;2023-10-13T09:06:51;20.80;99.90
15203;DHT22;7702;51.046;5.184;2023-10-13T09:09:30;20.80;99.90
15203;DHT22;7702;51.046;5.184;2023-10-13T09:14:38;21.00;99.90
15203;DHT22;7702;51.046;5.184;2023-10-13T09:17:08;21.00;99.90
15203;DHT22;7702;51.046;5.184;2023-10-13T09:19:53;21.00;99.90
15203;DHT22;7702;51.046;5.184;2023-10-13T09:22:30;21.00;99.90
15203;DHT22;7702;51.046;5.184;2023-10-13T09:25:02;21.10;99.90
15203;DHT22;7702;51.046;5.184;2023-10-13T09:27:31;21.20;99.90
15203;DHT22;7702;51.046;5.184;2023-10-13T09:30:04;21.20;99.90
15203;DHT22;7702;51.046;5.184;2023-10-13T09:33:04;21.20;99.90
15203;DHT22;7702;51.046;5.184;2023-10-13T09:35:30;21.30;99.90
15203;DHT22;7702;51.046;5.184;2023-10-13T09:38:02;21.30;99.90
15203;DHT22;7702;51.046;5.184;2023-10-13T09:40:30;21.30;99.90
15203;DHT22;7702;51.046;5.184;2023-10-13T09:42:59;21.40;99.90
15203;DHT22;7702;51.046;5.184;2023-10-13T09:45:31;21.40;99.90
15203;DHT22;7702;51.046;5.184;2023-10-13T09:48:31;21.40;99.90
15203;DHT22;7702;51.046;5.184;2023-10-13T09:51:00;21.50;99.90
15203;DHT22;7702;51.046;5.184;2023-10-13T09:53:26;21.50;95.50
15203;DHT22;7702;51.046;5.184;2023-10-13T09:55:59;21.50;97.70
15203;DHT22;7702;51.046;5.184;2023-10-13T09:58:38;21.60;96.50
15203;DHT22;7702;51.046;5.184;2023-10-13T10:01:16;21.70;92.90
15203;DHT22;7702;51.046;5.184;2023-10-13T10:03:47;21.80;91.90
15203;DHT22;7702;51.046;5.184;2023-10-13T10:06:36;21.80;92.40
15203;DHT22;7702;51.046;5.184;2023-10-13T10:09:10;21.90;87.60
15203;DHT22;7702;51.046;5.184;2023-10-13T10:17:41;21.90;84.90
15203;DHT22;7702;51.046;5.184;2023-10-13T10:20:08;21.90;83.20
15203;DHT22;7702;51.046;5.184;2023-10-13T10:22:59;21.90;84.40
15203;DHT22;7702;51.046;5.184;2023-10-13T10:25:32;22.00;79.40
15203;DHT22;7702;51.046;5.184;2023-10-13T10:28:07;22.10;85.70
15203;DHT22;7702;51.046;5.184;2023-10-13T10:30:37;22.10;85.60
15203;DHT22;7702;51.046;5.184;2023-10-13T10:33:08;22.20;76.10
15203;DHT22;7702;51.046;5.184;2023-10-13T10:35:41;22.40;72.20
15203;DHT22;7702;51.046;5.184;2023-10-13T10:38:15;22.30;71.90
15203;DHT22;7702;51.046;5.184;2023-10-13T10:43:28;22.30;72.10
15203;DHT22;7702;51.046;5.184;2023-10-13T10:46:31;22.20;70.10
15203;DHT22;7702;51.046;5.184;2023-10-13T10:49:05;22.30;66.00
15203;DHT22;7702;51.046;5.184;2023-10-13T10:51:39;22.30;64.20
15203;DHT22;7702;51.046;5.184;2023-10-13T10:54:18;22.40;59.90
15203;DHT22;7702;51.046;5.184;2023-10-13T10:56:45;22.40;62.30
15203;DHT22;7702;51.046;5.184;2023-10-13T10:59:18;22.60;61.90
15203;DHT22;7702;51.046;5.184;2023-10-13T11:01:46;22.80;65.50
15203;DHT22;7702;51.046;5.184;2023-10-13T11:04:18;22.90;58.80
15203;DHT22;7702;51.046;5.184;2023-10-13T11:06:55;22.90;61.20
15203;DHT22;7702;51.046;5.184;2023-10-13T11:09:29;22.90;61.80
15203;DHT22;7702;51.046;5.184;2023-10-13T11:12:12;22.80;58.20
15203;DHT22;7702;51.046;5.184;2023-10-13T11:14:43;22.80;52.80
15203;DHT22;7702;51.046;5.184;2023-10-13T11:17:22;22.80;50.00
15203;DHT22;7702;51.046;5.184;2023-10-13T11:20:13;22.90;49.20
15203;DHT22;7702;51.046;5.184;2023-10-13T11:22:49;23.00;46.70
15203;DHT22;7702;51.046;5.184;2023-10-13T11:25:24;23.00;52.10
15203;DHT22;7702;51.046;5.184;2023-10-13T11:27:58;23.00;55.70
15203;DHT22;7702;51.046;5.184;2023-10-13T11:30:27;23.20;61.20
15203;DHT22;7702;51.046;5.184;2023-10-13T11:33:13;23.40;52.40
15203;DHT22;7702;51.046;5.184;2023-10-13T11:35:55;23.50;40.00
15203;DHT22;7702;51.046;5.184;2023-10-13T11:38:41;23.40;41.10
15203;DHT22;7702;51.046;5.184;2023-10-13T11:41:13;23.40;36.30
15203;DHT22;7702;51.046;5.184;2023-10-13T11:43:48;23.50;27.90
15203;DHT22;7702;51.046;5.184;2023-10-13T11:46:27;23.50;31.70
15203;DHT22;7702;51.046;5.184;2023-10-13T11:49:08;23.40;27.60
15203;DHT22;7702;51.046;5.184;2023-10-13T11:51:57;23.30;42.10
15203;DHT22;7702;51.046;5.184;2023-10-13T11:54:42;23.20;47.80
15203;DHT22;7702;51.046;5.184;2023-10-13T11:57:08;23.10;40.60
15203;DHT22;7702;51.046;5.184;2023-10-13T11:59:34;23.10;41.30
15203;DHT22;7702;51.046;5.184;2023-10-13T12:02:06;23.00;34.20
15203;DHT22;7702;51.046;5.184;2023-10-13T12:04:50;23.00;34.50
15203;DHT22;7702;51.046;5.184;2023-10-13T12:07:25;23.00;36.40
15203;DHT22;7702;51.046;5.184;2023-10-13T12:10:11;23.00;29.00
15203;DHT22;7702;51.046;5.184;2023-10-13T12:12:57;23.10;37.50
15203;DHT22;7702;51.046;5.184;2023-10-13T12:15:29;23.00;22.40
15203;DHT22;7702;51.046;5.184;2023-10-13T12:18:03;23.00;22.90
15203;DHT22;7702;51.046;5.184;2023-10-13T12:20:30;23.00;19.10
15203;DHT22;7702;51.046;5.184;2023-10-13T12:22:59;23.00;42.50
15203;DHT22;7702;51.046;5.184;2023-10-13T12:25:37;23.00;45.70
15203;DHT22;7702;51.046;5.184;2023-10-13T12:28:20;23.00;39.20
15203;DHT22;7702;51.046;5.184;2023-10-13T12:30:49;23.00;1.00
15203;DHT22;7702;51.046;5.184;2023-10-13T12:33:15;23.10;1.00
15203;DHT22;7702;51.046;5.184;2023-10-13T12:35:55;23.00;1.00
15203;DHT22;7702;51.046;5.184;2023-10-13T12:38:44;23.10;1.00
15203;DHT22;7702;51.046;5.184;2023-10-13T12:41:17;23.00;1.00
15203;DHT22;7702;51.046;5.184;2023-10-13T12:44:02;23.00;1.00
15203;DHT22;7702;51.046;5.184;2023-10-13T12:46:46;23.00;1.00
15203;DHT22;7702;51.046;5.184;2023-10-13T12:49:33;23.10;1.00
15203;DHT22;7702;51.046;5.184;2023-10-13T12:52:15;23.00;1.00
15203;DHT22;7702;51.046;5.184;2023-10-13T12:54:46;23.00;1.00
15203;DHT22;7702;51.046;5.184;2023-10-13T12:57:33;23.00;1.00
15203;DHT22;7702;51.046;5.184;2023-10-13T12:59:59;23.00;1.00
15203;DHT22;7702;51.046;5.184;2023-10-13T13:02:25;22.90;1.00
15203;DHT22;7702;51.046;5.184;2023-10-13T13:04:52;22.90;1.00
15203;DHT22;7702;51.046;5.184;2023-10-13T13:07:34;22.80;1.00
15203;DHT22;7702;51.046;5.184;2023-10-13T13:10:10;22.80;1.00
15203;DHT22;7702;51.046;5.184;2023-10-13T13:12:37;22.80;1.00
15203;DHT22;7702;51.046;5.184;2023-10-13T13:15:03;22.80;1.00
15203;DHT22;7702;51.046;5.184;2023-10-13T13:17:36;22.80;1.00
15203;DHT22;7702;51.046;5.184;2023-10-13T13:20:07;22.80;1.00
15203;DHT22;7702;51.046;5.184;2023-10-13T13:22:42;22.80;1.00
15203;DHT22;7702;51.046;5.184;2023-10-13T13:25:08;22.70;1.00
15203;DHT22;7702;51.046;5.184;2023-10-13T13:27:34;22.70;1.00
15203;DHT22;7702;51.046;5.184;2023-10-13T13:30:00;22.60;1.00
15203;DHT22;7702;51.046;5.184;2023-10-13T13:32:26;22.60;1.00
15203;DHT22;7702;51.046;5.184;2023-10-13T13:34:54;22.50;1.00
15203;DHT22;7702;51.046;5.184;2023-10-13T13:37:22;22.50;1.00
15203;DHT22;7702;51.046;5.184;2023-10-13T13:39:52;22.50;1.00
15203;DHT22;7702;51.046;5.184;2023-10-13T13:42:18;22.50;1.00
15203;DHT22;7702;51.046;5.184;2023-10-13T13:44:45;22.60;1.00
15203;DHT22;7702;51.046;5.184;2023-10-13T13:47:15;22.60;1.00
15203;DHT22;7702;51.046;5.184;2023-10-13T13:49:42;22.60;1.00
15203;DHT22;7702;51.046;5.184;2023-10-13T13:52:22;22.60;1.00
15203;DHT22;7702;51.046;5.184;2023-10-13T13:54:59;22.70;1.00
15203;DHT22;7702;51.046;5.184;2023-10-13T13:57:28;22.60;1.00
15203;DHT22;7702;51.046;5.184;2023-10-13T13:59:55;22.60;1.00
15203;DHT22;7702;51.046;5.184;2023-10-13T14:02:23;22.60;1.00
15203;DHT22;7702;51.046;5.184;2023-10-13T14:04:49;22.50;1.00
15203;DHT22;7702;51.046;5.184;2023-10-13T14:07:18;22.50;1.00
15203;DHT22;7702;51.046;5.184;2023-10-13T14:09:46;22.50;1.00
15203;DHT22;7702;51.046;5.184;2023-10-13T14:12:17;22.50;1.00
15203;DHT22;7702;51.046;5.184;2023-10-13T14:14:56;22.40;1.00
15203;DHT22;7702;51.046;5.184;2023-10-13T14:17:25;22.40;1.00
15203;DHT22;7702;51.046;5.184;2023-10-13T14:20:01;22.50;1.00
15203;DHT22;7702;51.046;5.184;2023-10-13T14:22:40;22.50;1.00
15203;DHT22;7702;51.046;5.184;2023-10-13T14:25:07;22.50;1.00
15203;DHT22;7702;51.046;5.184;2023-10-13T14:27:35;22.50;1.00
15203;DHT22;7702;51.046;5.184;2023-10-13T14:30:03;22.50;1.00
15203;DHT22;7702;51.046;5.184;2023-10-13T14:32:29;22.70;1.00
15203;DHT22;7702;51.046;5.184;2023-10-13T14:34:55;22.90;1.00
15203;DHT22;7702;51.046;5.184;2023-10-13T14:37:22;23.00;1.00
15203;DHT22;7702;51.046;5.184;2023-10-13T14:39:57;23.00;1.00
15203;DHT22;7702;51.046;5.184;2023-10-13T14:42:27;23.00;1.00
15203;DHT22;7702;51.046;5.184;2023-10-13T14:44:53;22.90;1.00
15203;DHT22;7702;51.046;5.184;2023-10-13T14:47:23;22.80;1.00
15203;DHT22;7702;51.046;5.184;2023-10-13T14:49:54;22.80;1.00
15203;DHT22;7702;51.046;5.184;2023-10-13T14:52:22;22.70;1.00
15203;DHT22;7702;51.046;5.184;2023-10-13T14:54:50;22.60;1.00
15203;DHT22;7702;51.046;5.184;2023-10-13T14:57:21;22.60;1.00
15203;DHT22;7702;51.046;5.184;2023-10-13T14:59:53;22.60;1.00
15203;DHT22;7702;51.046;5.184;2023-10-13T15:02:20;22.50;1.00
15203;DHT22;7702;51.046;5.184;2023-10-13T15:04:47;22.50;1.00
15203;DHT22;7702;51.046;5.184;2023-10-13T15:07:16;22.50;1.00
15203;DHT22;7702;51.046;5.184;2023-10-13T15:09:45;22.50;1.00
15203;DHT22;7702;51.046;5.184;2023-10-13T15:12:11;22.40;1.00
15203;DHT22;7702;51.046;5.184;2023-10-13T15:14:40;22.30;1.00
15203;DHT22;7702;51.046;5.184;2023-10-13T15:17:09;22.30;1.00
15203;DHT22;7702;51.046;5.184;2023-10-13T15:19:36;22.20;1.00
15203;DHT22;7702;51.046;5.184;2023-10-13T15:22:05;22.20;1.00
15203;DHT22;7702;51.046;5.184;2023-10-13T15:24:38;22.10;1.00
15203;DHT22;7702;51.046;5.184;2023-10-13T15:27:25;22.00;1.00
15203;DHT22;7702;51.046;5.184;2023-10-13T15:29:54;21.80;7.00
15203;DHT22;7702;51.046;5.184;2023-10-13T15:32:20;21.60;14.40
15203;DHT22;7702;51.046;5.184;2023-10-13T15:35:04;21.50;25.10
15203;DHT22;7702;51.046;5.184;2023-10-13T15:37:30;21.50;27.80
15203;DHT22;7702;51.046;5.184;2023-10-13T15:39:56;21.30;32.80
15203;DHT22;7702;51.046;5.184;2023-10-13T15:42:23;21.10;41.30
15203;DHT22;7702;51.046;5.184;2023-10-13T15:44:49;20.90;48.30
15203;DHT22;7702;51.046;5.184;2023-10-13T15:47:15;20.80;57.00
15203;DHT22;7702;51.046;5.184;2023-10-13T15:49:41;20.70;57.20
15203;DHT22;7702;51.046;5.184;2023-10-13T15:52:08;20.70;56.70
15203;DHT22;7702;51.046;5.184;2023-10-13T15:54:35;20.60;65.90
15203;DHT22;7702;51.046;5.184;2023-10-13T15:57:00;20.50;65.70
15203;DHT22;7702;51.046;5.184;2023-10-13T15:59:26;20.40;67.10
15203;DHT22;7702;51.046;5.184;2023-10-13T16:01:52;20.30;68.80
15203;DHT22;7702;51.046;5.184;2023-10-13T16:04:23;20.30;69.70
15203;DHT22;7702;51.046;5.184;2023-10-13T16:06:49;20.30;71.80
15203;DHT22;7702;51.046;5.184;2023-10-13T16:09:17;20.20;76.30
15203;DHT22;7702;51.046;5.184;2023-10-13T16:11:53;20.20;81.40
15203;DHT22;7702;51.046;5.184;2023-10-13T16:14:19;20.10;75.50
15203;DHT22;7702;51.046;5.184;2023-10-13T16:16:49;20.00;82.40
15203;DHT22;7702;51.046;5.184;2023-10-13T16:19:19;20.00;84.80
15203;DHT22;7702;51.046;5.184;2023-10-13T16:21:50;19.90;90.20
15203;DHT22;7702;51.046;5.184;2023-10-13T16:24:17;19.90;87.30
15203;DHT22;7702;51.046;5.184;2023-10-13T16:26:51;19.80;89.40
15203;DHT22;7702;51.046;5.184;2023-10-13T16:29:21;19.80;92.20
15203;DHT22;7702;51.046;5.184;2023-10-13T16:31:48;19.80;91.80
15203;DHT22;7702;51.046;5.184;2023-10-13T16:34:14;19.80;87.10
15203;DHT22;7702;51.046;5.184;2023-10-13T16:36:47;19.80;85.30
15203;DHT22;7702;51.046;5.184;2023-10-13T16:39:13;19.90;77.80
15203;DHT22;7702;51.046;5.184;2023-10-13T16:41:42;19.90;72.00
15203;DHT22;7702;51.046;5.184;2023-10-13T16:44:10;20.00;67.70
15203;DHT22;7702;51.046;5.184;2023-10-13T16:46:37;20.00;67.00
15203;DHT22;7702;51.046;5.184;2023-10-13T16:49:03;20.00;65.80